sensor_id;sensor_type;location;lat;lon;timestamp;P1;durP1;ratioP1;P2;durP2;ratioP2
6089;SDS011;3073;42.660;23.316;2022-09-01T00:02:06;29.43;;;18.80;;
6089;SDS011;3073;42.660;23.316;2022-09-01T00:04:38;26.63;;;17.97;;
6089;SDS011;3073;42.660;23.316;2022-09-01T00:07:04;23.90;;;18.80;;
6089;SDS011;3073;42.660;23.316;2022-09-01T00:09:31;22.50;;;17.37;;
6089;SDS011;3073;42.660;23.316;2022-09-01T00:11:59;31.40;;;17.80;;
6089;SDS011;3073;42.660;23.316;2022-09-01T00:14:27;22.53;;;18.40;;
6089;SDS011;3073;42.660;23.316;2022-09-01T00:16:57;24.03;;;17.67;;
6089;SDS011;3073;42.660;23.316;2022-09-01T00:19:24;20.03;;;17.37;;
6089;SDS011;3073;42.660;23.316;2022-09-01T00:21:55;22.80;;;17.80;;
6089;SDS011;3073;42.660;23.316;2022-09-01T00:24:22;31.10;;;18.20;;
6089;SDS011;3073;42.660;23.316;2022-09-01T00:26:50;24.10;;;18.23;;
6089;SDS011;3073;42.660;23.316;2022-09-01T00:29:17;24.60;;;18.90;;
6089;SDS011;3073;42.660;23.316;2022-09-01T00:31:44;28.13;;;19.50;;
6089;SDS011;3073;42.660;23.316;2022-09-01T00:34:11;32.33;;;20.67;;
6089;SDS011;3073;42.660;23.316;2022-09-01T00:36:38;26.60;;;19.23;;
6089;SDS011;3073;42.660;23.316;2022-09-01T00:39:07;26.60;;;19.27;;
6089;SDS011;3073;42.660;23.316;2022-09-01T00:41:35;25.97;;;18.80;;
6089;SDS011;3073;42.660;23.316;2022-09-01T00:44:04;26.50;;;18.90;;
6089;SDS011;3073;42.660;23.316;2022-09-01T00:46:33;21.93;;;17.67;;
6089;SDS011;3073;42.660;23.316;2022-09-01T00:49:03;22.63;;;18.33;;
6089;SDS011;3073;42.660;23.316;2022-09-01T00:51:33;24.50;;;18.60;;
6089;SDS011;3073;42.660;23.316;2022-09-01T00:54:03;34.90;;;20.53;;
6089;SDS011;3073;42.660;23.316;2022-09-01T00:56:34;32.87;;;21.63;;
6089;SDS011;3073;42.660;23.316;2022-09-01T00:59:05;32.43;;;22.10;;
6089;SDS011;3073;42.660;23.316;2022-09-01T01:01:34;30.20;;;21.50;;
6089;SDS011;3073;42.660;23.316;2022-09-01T01:04:02;32.80;;;22.27;;
6089;SDS011;3073;42.660;23.316;2022-09-01T01:06:30;27.13;;;20.20;;
6089;SDS011;3073;42.660;23.316;2022-09-01T01:08:57;30.20;;;22.60;;
6089;SDS011;3073;42.660;23.316;2022-09-01T01:11:28;25.83;;;21.77;;
6089;SDS011;3073;42.660;23.316;2022-09-01T01:13:57;28.20;;;21.37;;
6089;SDS011;3073;42.660;23.316;2022-09-01T01:16:29;30.67;;;21.20;;
6089;SDS011;3073;42.660;23.316;2022-09-01T01:18:56;35.60;;;20.70;;
6089;SDS011;3073;42.660;23.316;2022-09-01T01:21:25;25.73;;;20.20;;
6089;SDS011;3073;42.660;23.316;2022-09-01T01:24:20;25.50;;;19.73;;
6089;SDS011;3073;42.660;23.316;2022-09-01T01:26:48;30.57;;;21.07;;
6089;SDS011;3073;42.660;23.316;2022-09-01T01:29:16;29.73;;;22.03;;
6089;SDS011;3073;42.660;23.316;2022-09-01T01:31:43;25.20;;;20.30;;
6089;SDS011;3073;42.660;23.316;2022-09-01T01:34:11;23.73;;;19.20;;
6089;SDS011;3073;42.660;23.316;2022-09-01T01:36:39;31.07;;;20.83;;
6089;SDS011;3073;42.660;23.316;2022-09-01T01:39:07;28.83;;;21.43;;
6089;SDS011;3073;42.660;23.316;2022-09-01T01:41:36;27.43;;;21.33;;
6089;SDS011;3073;42.660;23.316;2022-09-01T01:44:08;29.73;;;22.13;;
6089;SDS011;3073;42.660;23.316;2022-09-01T01:46:38;30.00;;;21.80;;
6089;SDS011;3073;42.660;23.316;2022-09-01T01:49:07;29.80;;;23.00;;
6089;SDS011;3073;42.660;23.316;2022-09-01T01:51:33;30.67;;;23.03;;
6089;SDS011;3073;42.660;23.316;2022-09-01T01:54:01;32.63;;;22.70;;
6089;SDS011;3073;42.660;23.316;2022-09-01T01:56:30;30.77;;;22.30;;
6089;SDS011;3073;42.660;23.316;2022-09-01T01:59:02;28.20;;;21.50;;
6089;SDS011;3073;42.660;23.316;2022-09-01T02:01:29;31.60;;;22.43;;
6089;SDS011;3073;42.660;23.316;2022-09-01T02:03:56;25.10;;;19.90;;
6089;SDS011;3073;42.660;23.316;2022-09-01T02:06:25;27.23;;;21.87;;
6089;SDS011;3073;42.660;23.316;2022-09-01T02:08:54;29.07;;;22.73;;
6089;SDS011;3073;42.660;23.316;2022-09-01T02:11:27;29.13;;;21.40;;
6089;SDS011;3073;42.660;23.316;2022-09-01T02:13:57;32.30;;;22.03;;
6089;SDS011;3073;42.660;23.316;2022-09-01T02:16:26;28.93;;;21.63;;
6089;SDS011;3073;42.660;23.316;2022-09-01T02:18:57;27.90;;;21.10;;
6089;SDS011;3073;42.660;23.316;2022-09-01T02:21:25;30.37;;;22.10;;
6089;SDS011;3073;42.660;23.316;2022-09-01T02:23:55;29.27;;;21.80;;
6089;SDS011;3073;42.660;23.316;2022-09-01T02:26:25;33.03;;;23.77;;
6089;SDS011;3073;42.660;23.316;2022-09-01T02:28:56;29.27;;;22.17;;
6089;SDS011;3073;42.660;23.316;2022-09-01T02:31:30;30.50;;;24.27;;
6089;SDS011;3073;42.660;23.316;2022-09-01T02:33:59;36.50;;;23.63;;
6089;SDS011;3073;42.660;23.316;2022-09-01T02:36:26;31.60;;;23.33;;
6089;SDS011;3073;42.660;23.316;2022-09-01T02:38:56;41.97;;;24.87;;
6089;SDS011;3073;42.660;23.316;2022-09-01T02:41:24;30.93;;;24.33;;
6089;SDS011;3073;42.660;23.316;2022-09-01T02:43:53;33.30;;;25.00;;
6089;SDS011;3073;42.660;23.316;2022-09-01T02:46:19;31.03;;;25.90;;
6089;SDS011;3073;42.660;23.316;2022-09-01T02:48:49;35.10;;;25.93;;
6089;SDS011;3073;42.660;23.316;2022-09-01T02:51:17;33.37;;;22.70;;
6089;SDS011;3073;42.660;23.316;2022-09-01T02:53:45;32.60;;;22.47;;
6089;SDS011;3073;42.660;23.316;2022-09-01T02:56:17;31.60;;;21.17;;
6089;SDS011;3073;42.660;23.316;2022-09-01T02:58:47;31.33;;;22.50;;
6089;SDS011;3073;42.660;23.316;2022-09-01T03:01:15;25.90;;;21.17;;
6089;SDS011;3073;42.660;23.316;2022-09-01T03:03:45;28.10;;;23.00;;
6089;SDS011;3073;42.660;23.316;2022-09-01T03:06:14;31.17;;;22.37;;
6089;SDS011;3073;42.660;23.316;2022-09-01T03:08:44;34.43;;;23.17;;
6089;SDS011;3073;42.660;23.316;2022-09-01T03:11:11;28.07;;;22.97;;
6089;SDS011;3073;42.660;23.316;2022-09-01T03:13:39;28.80;;;23.10;;
6089;SDS011;3073;42.660;23.316;2022-09-01T03:16:07;42.13;;;30.13;;
6089;SDS011;3073;42.660;23.316;2022-09-01T03:18:35;52.23;;;32.23;;
6089;SDS011;3073;42.660;23.316;2022-09-01T03:21:03;46.57;;;31.97;;
6089;SDS011;3073;42.660;23.316;2022-09-01T03:23:32;49.90;;;33.40;;
6089;SDS011;3073;42.660;23.316;2022-09-01T03:25:59;46.00;;;32.00;;
6089;SDS011;3073;42.660;23.316;2022-09-01T03:28:26;44.37;;;31.50;;
6089;SDS011;3073;42.660;23.316;2022-09-01T03:30:54;53.77;;;32.60;;
6089;SDS011;3073;42.660;23.316;2022-09-01T03:33:23;49.13;;;29.60;;
6089;SDS011;3073;42.660;23.316;2022-09-01T03:35:51;49.10;;;31.33;;
6089;SDS011;3073;42.660;23.316;2022-09-01T03:38:18;47.20;;;32.57;;
6089;SDS011;3073;42.660;23.316;2022-09-01T03:40:49;55.43;;;32.10;;
6089;SDS011;3073;42.660;23.316;2022-09-01T03:43:18;48.70;;;32.70;;
6089;SDS011;3073;42.660;23.316;2022-09-01T03:45:51;58.73;;;33.73;;
6089;SDS011;3073;42.660;23.316;2022-09-01T03:48:19;57.80;;;31.50;;
6089;SDS011;3073;42.660;23.316;2022-09-01T03:50:47;49.87;;;32.40;;
6089;SDS011;3073;42.660;23.316;2022-09-01T03:53:14;46.63;;;31.13;;
6089;SDS011;3073;42.660;23.316;2022-09-01T03:55:45;51.97;;;32.90;;
6089;SDS011;3073;42.660;23.316;2022-09-01T03:58:16;49.67;;;32.40;;
6089;SDS011;3073;42.660;23.316;2022-09-01T04:00:46;49.87;;;31.10;;
6089;SDS011;3073;42.660;23.316;2022-09-01T04:03:16;49.23;;;37.53;;
6089;SDS011;3073;42.660;23.316;2022-09-01T04:05:46;47.07;;;33.20;;
6089;SDS011;3073;42.660;23.316;2022-09-01T04:08:13;51.00;;;29.67;;
6089;SDS011;3073;42.660;23.316;2022-09-01T04:10:42;47.53;;;30.43;;
6089;SDS011;3073;42.660;23.316;2022-09-01T04:13:16;38.30;;;28.23;;
6089;SDS011;3073;42.660;23.316;2022-09-01T04:15:44;37.10;;;25.83;;
6089;SDS011;3073;42.660;23.316;2022-09-01T04:18:12;35.17;;;26.17;;
6089;SDS011;3073;42.660;23.316;2022-09-01T04:20:47;33.70;;;25.00;;
6089;SDS011;3073;42.660;23.316;2022-09-01T04:23:15;39.83;;;23.27;;
6089;SDS011;3073;42.660;23.316;2022-09-01T04:25:47;39.10;;;26.13;;
6089;SDS011;3073;42.660;23.316;2022-09-01T04:28:17;34.93;;;26.40;;
6089;SDS011;3073;42.660;23.316;2022-09-01T04:30:52;40.83;;;26.97;;
6089;SDS011;3073;42.660;23.316;2022-09-01T04:33:23;37.57;;;26.60;;
6089;SDS011;3073;42.660;23.316;2022-09-01T04:35:51;32.90;;;24.53;;
6089;SDS011;3073;42.660;23.316;2022-09-01T04:38:21;34.47;;;24.47;;
6089;SDS011;3073;42.660;23.316;2022-09-01T04:40:49;38.83;;;26.57;;
6089;SDS011;3073;42.660;23.316;2022-09-01T04:43:18;45.83;;;26.20;;
6089;SDS011;3073;42.660;23.316;2022-09-01T04:45:45;32.37;;;22.97;;
6089;SDS011;3073;42.660;23.316;2022-09-01T04:48:14;40.83;;;25.30;;
6089;SDS011;3073;42.660;23.316;2022-09-01T04:50:41;41.90;;;24.10;;
6089;SDS011;3073;42.660;23.316;2022-09-01T04:53:09;35.77;;;24.53;;
6089;SDS011;3073;42.660;23.316;2022-09-01T04:55:37;36.17;;;23.33;;
6089;SDS011;3073;42.660;23.316;2022-09-01T04:58:08;31.53;;;23.00;;
6089;SDS011;3073;42.660;23.316;2022-09-01T05:00:38;37.73;;;24.80;;
6089;SDS011;3073;42.660;23.316;2022-09-01T05:03:06;33.17;;;24.97;;
6089;SDS011;3073;42.660;23.316;2022-09-01T05:05:38;37.03;;;26.00;;
6089;SDS011;3073;42.660;23.316;2022-09-01T05:08:07;44.93;;;24.80;;
6089;SDS011;3073;42.660;23.316;2022-09-01T05:10:38;33.63;;;23.93;;
6089;SDS011;3073;42.660;23.316;2022-09-01T05:13:07;34.57;;;24.67;;
6089;SDS011;3073;42.660;23.316;2022-09-01T05:15:37;32.57;;;24.27;;
6089;SDS011;3073;42.660;23.316;2022-09-01T05:18:11;33.00;;;23.40;;
6089;SDS011;3073;42.660;23.316;2022-09-01T05:20:40;35.50;;;23.53;;
6089;SDS011;3073;42.660;23.316;2022-09-01T05:23:09;28.07;;;22.10;;
6089;SDS011;3073;42.660;23.316;2022-09-01T05:25:41;35.83;;;24.70;;
6089;SDS011;3073;42.660;23.316;2022-09-01T05:28:10;37.13;;;25.60;;
6089;SDS011;3073;42.660;23.316;2022-09-01T05:30:39;33.77;;;24.03;;
6089;SDS011;3073;42.660;23.316;2022-09-01T05:33:07;42.57;;;24.10;;
6089;SDS011;3073;42.660;23.316;2022-09-01T05:35:36;48.93;;;27.23;;
6089;SDS011;3073;42.660;23.316;2022-09-01T05:38:08;47.37;;;26.80;;
6089;SDS011;3073;42.660;23.316;2022-09-01T05:40:37;47.27;;;25.27;;
6089;SDS011;3073;42.660;23.316;2022-09-01T05:43:05;35.83;;;23.60;;
6089;SDS011;3073;42.660;23.316;2022-09-01T05:45:35;32.53;;;23.80;;
6089;SDS011;3073;42.660;23.316;2022-09-01T05:48:04;37.33;;;25.43;;
6089;SDS011;3073;42.660;23.316;2022-09-01T05:50:34;47.23;;;25.40;;
6089;SDS011;3073;42.660;23.316;2022-09-01T05:53:02;31.43;;;22.70;;
6089;SDS011;3073;42.660;23.316;2022-09-01T05:55:40;37.80;;;22.57;;
6089;SDS011;3073;42.660;23.316;2022-09-01T05:58:09;28.73;;;20.60;;
6089;SDS011;3073;42.660;23.316;2022-09-01T06:00:38;43.83;;;22.90;;
6089;SDS011;3073;42.660;23.316;2022-09-01T06:03:08;27.47;;;19.67;;
6089;SDS011;3073;42.660;23.316;2022-09-01T06:05:36;28.17;;;20.90;;
6089;SDS011;3073;42.660;23.316;2022-09-01T06:08:04;34.93;;;21.77;;
6089;SDS011;3073;42.660;23.316;2022-09-01T06:10:35;27.50;;;19.73;;
6089;SDS011;3073;42.660;23.316;2022-09-01T06:13:04;30.67;;;20.30;;
6089;SDS011;3073;42.660;23.316;2022-09-01T06:15:31;31.23;;;20.80;;
6089;SDS011;3073;42.660;23.316;2022-09-01T06:18:00;27.57;;;20.57;;
6089;SDS011;3073;42.660;23.316;2022-09-01T06:20:28;26.77;;;20.87;;
6089;SDS011;3073;42.660;23.316;2022-09-01T06:22:55;27.93;;;19.03;;
6089;SDS011;3073;42.660;23.316;2022-09-01T06:25:22;31.50;;;18.20;;
6089;SDS011;3073;42.660;23.316;2022-09-01T06:27:54;34.10;;;19.63;;
6089;SDS011;3073;42.660;23.316;2022-09-01T06:30:21;26.20;;;16.70;;
6089;SDS011;3073;42.660;23.316;2022-09-01T06:32:50;26.33;;;17.00;;
6089;SDS011;3073;42.660;23.316;2022-09-01T06:35:18;26.83;;;18.10;;
6089;SDS011;3073;42.660;23.316;2022-09-01T06:37:47;25.30;;;17.90;;
6089;SDS011;3073;42.660;23.316;2022-09-01T06:40:14;26.73;;;18.30;;
6089;SDS011;3073;42.660;23.316;2022-09-01T06:42:42;25.93;;;18.67;;
6089;SDS011;3073;42.660;23.316;2022-09-01T06:45:11;25.10;;;19.60;;
6089;SDS011;3073;42.660;23.316;2022-09-01T06:47:39;25.50;;;18.23;;
6089;SDS011;3073;42.660;23.316;2022-09-01T06:50:08;26.73;;;18.33;;
6089;SDS011;3073;42.660;23.316;2022-09-01T06:52:39;29.13;;;20.43;;
6089;SDS011;3073;42.660;23.316;2022-09-01T06:55:08;39.53;;;20.70;;
6089;SDS011;3073;42.660;23.316;2022-09-01T06:57:36;26.27;;;19.40;;
6089;SDS011;3073;42.660;23.316;2022-09-01T07:00:03;37.37;;;22.83;;
6089;SDS011;3073;42.660;23.316;2022-09-01T07:02:42;44.73;;;22.73;;
6089;SDS011;3073;42.660;23.316;2022-09-01T07:05:09;33.50;;;21.40;;
6089;SDS011;3073;42.660;23.316;2022-09-01T07:07:39;30.63;;;21.93;;
6089;SDS011;3073;42.660;23.316;2022-09-01T07:10:08;28.67;;;20.50;;
6089;SDS011;3073;42.660;23.316;2022-09-01T07:12:36;33.23;;;21.30;;
6089;SDS011;3073;42.660;23.316;2022-09-01T07:15:04;33.77;;;22.30;;
6089;SDS011;3073;42.660;23.316;2022-09-01T07:17:32;34.33;;;22.80;;
6089;SDS011;3073;42.660;23.316;2022-09-01T07:19:58;29.93;;;21.10;;
6089;SDS011;3073;42.660;23.316;2022-09-01T07:22:25;37.80;;;24.53;;
6089;SDS011;3073;42.660;23.316;2022-09-01T07:24:52;33.50;;;23.10;;
6089;SDS011;3073;42.660;23.316;2022-09-01T07:27:22;33.47;;;21.80;;
6089;SDS011;3073;42.660;23.316;2022-09-01T07:29:53;48.47;;;23.53;;
6089;SDS011;3073;42.660;23.316;2022-09-01T07:32:21;38.37;;;24.77;;
6089;SDS011;3073;42.660;23.316;2022-09-01T07:34:49;33.38;;;22.92;;
6089;SDS011;3073;42.660;23.316;2022-09-01T07:37:16;38.67;;;23.63;;
6089;SDS011;3073;42.660;23.316;2022-09-01T07:39:47;34.40;;;21.65;;
6089;SDS011;3073;42.660;23.316;2022-09-01T07:42:15;38.53;;;22.58;;
6089;SDS011;3073;42.660;23.316;2022-09-01T07:44:44;42.97;;;22.77;;
6089;SDS011;3073;42.660;23.316;2022-09-01T07:47:11;37.15;;;22.48;;
6089;SDS011;3073;42.660;23.316;2022-09-01T07:49:39;29.63;;;22.38;;
6089;SDS011;3073;42.660;23.316;2022-09-01T07:52:07;26.80;;;20.92;;
6089;SDS011;3073;42.660;23.316;2022-09-01T07:54:34;38.00;;;20.55;;
6089;SDS011;3073;42.660;23.316;2022-09-01T07:57:01;25.30;;;19.83;;
6089;SDS011;3073;42.660;23.316;2022-09-01T07:59:28;28.63;;;21.95;;
6089;SDS011;3073;42.660;23.316;2022-09-01T08:01:56;30.15;;;21.70;;
6089;SDS011;3073;42.660;23.316;2022-09-01T08:04:25;27.88;;;21.45;;
6089;SDS011;3073;42.660;23.316;2022-09-01T08:06:51;38.95;;;23.35;;
6089;SDS011;3073;42.660;23.316;2022-09-01T08:09:20;32.25;;;23.13;;
6089;SDS011;3073;42.660;23.316;2022-09-01T08:11:47;39.95;;;21.40;;
6089;SDS011;3073;42.660;23.316;2022-09-01T08:14:13;30.90;;;22.75;;
6089;SDS011;3073;42.660;23.316;2022-09-01T08:16:40;35.50;;;25.30;;
6089;SDS011;3073;42.660;23.316;2022-09-01T08:19:09;32.45;;;22.48;;
6089;SDS011;3073;42.660;23.316;2022-09-01T08:21:35;33.17;;;22.58;;
6089;SDS011;3073;42.660;23.316;2022-09-01T08:24:04;29.95;;;23.02;;
6089;SDS011;3073;42.660;23.316;2022-09-01T08:26:31;38.83;;;25.00;;
6089;SDS011;3073;42.660;23.316;2022-09-01T08:28:57;39.03;;;23.17;;
6089;SDS011;3073;42.660;23.316;2022-09-01T08:31:24;41.58;;;23.58;;
6089;SDS011;3073;42.660;23.316;2022-09-01T08:33:52;27.98;;;22.92;;
6089;SDS011;3073;42.660;23.316;2022-09-01T08:36:21;40.78;;;24.92;;
6089;SDS011;3073;42.660;23.316;2022-09-01T08:38:48;34.90;;;24.35;;
6089;SDS011;3073;42.660;23.316;2022-09-01T08:41:16;41.28;;;22.98;;
6089;SDS011;3073;42.660;23.316;2022-09-01T08:43:49;34.08;;;22.00;;
6089;SDS011;3073;42.660;23.316;2022-09-01T08:46:28;31.90;;;22.60;;
6089;SDS011;3073;42.660;23.316;2022-09-01T08:49:00;39.38;;;22.08;;
6089;SDS011;3073;42.660;23.316;2022-09-01T08:51:36;33.13;;;21.02;;
6089;SDS011;3073;42.660;23.316;2022-09-01T08:54:09;29.42;;;22.48;;
6089;SDS011;3073;42.660;23.316;2022-09-01T08:56:42;39.42;;;23.50;;
6089;SDS011;3073;42.660;23.316;2022-09-01T08:59:09;34.75;;;22.55;;
6089;SDS011;3073;42.660;23.316;2022-09-01T09:01:39;29.00;;;21.63;;
6089;SDS011;3073;42.660;23.316;2022-09-01T09:04:15;36.53;;;21.65;;
6089;SDS011;3073;42.660;23.316;2022-09-01T09:06:58;34.97;;;17.55;;
6089;SDS011;3073;42.660;23.316;2022-09-01T09:09:36;33.35;;;19.20;;
6089;SDS011;3073;42.660;23.316;2022-09-01T09:15:01;28.83;;;18.20;;
6089;SDS011;3073;42.660;23.316;2022-09-01T09:17:39;24.85;;;19.35;;
6089;SDS011;3073;42.660;23.316;2022-09-01T09:20:10;30.02;;;19.15;;
6089;SDS011;3073;42.660;23.316;2022-09-01T09:22:38;34.42;;;20.50;;
6089;SDS011;3073;42.660;23.316;2022-09-01T09:25:07;24.85;;;18.13;;
6089;SDS011;3073;42.660;23.316;2022-09-01T09:27:37;23.98;;;16.27;;
6089;SDS011;3073;42.660;23.316;2022-09-01T09:30:06;53.35;;;19.65;;
6089;SDS011;3073;42.660;23.316;2022-09-01T09:32:43;38.58;;;18.08;;
6089;SDS011;3073;42.660;23.316;2022-09-01T09:35:17;19.90;;;16.38;;
6089;SDS011;3073;42.660;23.316;2022-09-01T09:37:48;30.38;;;18.58;;
6089;SDS011;3073;42.660;23.316;2022-09-01T09:40:16;31.67;;;17.60;;
6089;SDS011;3073;42.660;23.316;2022-09-01T09:42:59;19.88;;;14.15;;
6089;SDS011;3073;42.660;23.316;2022-09-01T09:45:30;19.38;;;15.02;;
6089;SDS011;3073;42.660;23.316;2022-09-01T09:47:59;35.70;;;15.65;;
6089;SDS011;3073;42.660;23.316;2022-09-01T09:50:30;24.98;;;15.50;;
6089;SDS011;3073;42.660;23.316;2022-09-01T09:53:11;19.85;;;15.23;;
6089;SDS011;3073;42.660;23.316;2022-09-01T09:55:54;20.42;;;16.33;;
6089;SDS011;3073;42.660;23.316;2022-09-01T09:58:27;19.15;;;15.38;;
6089;SDS011;3073;42.660;23.316;2022-09-01T10:01:00;26.38;;;15.18;;
6089;SDS011;3073;42.660;23.316;2022-09-01T10:03:34;22.08;;;15.13;;
6089;SDS011;3073;42.660;23.316;2022-09-01T10:06:08;21.42;;;15.07;;
6089;SDS011;3073;42.660;23.316;2022-09-01T10:08:39;22.48;;;14.40;;
6089;SDS011;3073;42.660;23.316;2022-09-01T10:11:10;23.52;;;13.80;;
6089;SDS011;3073;42.660;23.316;2022-09-01T10:13:53;19.75;;;16.10;;
6089;SDS011;3073;42.660;23.316;2022-09-01T10:16:22;23.42;;;15.23;;
6089;SDS011;3073;42.660;23.316;2022-09-01T10:18:54;29.10;;;16.15;;
6089;SDS011;3073;42.660;23.316;2022-09-01T10:21:25;29.73;;;17.10;;
6089;SDS011;3073;42.660;23.316;2022-09-01T10:23:59;27.02;;;16.13;;
6089;SDS011;3073;42.660;23.316;2022-09-01T10:26:31;25.35;;;16.95;;
6089;SDS011;3073;42.660;23.316;2022-09-01T10:29:05;28.98;;;16.90;;
6089;SDS011;3073;42.660;23.316;2022-09-01T10:31:38;25.05;;;18.08;;
6089;SDS011;3073;42.660;23.316;2022-09-01T10:34:08;33.22;;;16.90;;
6089;SDS011;3073;42.660;23.316;2022-09-01T10:36:39;28.67;;;17.17;;
6089;SDS011;3073;42.660;23.316;2022-09-01T10:39:10;23.92;;;17.13;;
6089;SDS011;3073;42.660;23.316;2022-09-01T10:41:45;26.50;;;15.60;;
6089;SDS011;3073;42.660;23.316;2022-09-01T10:44:20;29.80;;;18.20;;
6089;SDS011;3073;42.660;23.316;2022-09-01T10:46:50;26.30;;;17.92;;
6089;SDS011;3073;42.660;23.316;2022-09-01T10:55:16;23.45;;;16.00;;
6089;SDS011;3073;42.660;23.316;2022-09-01T10:57:49;28.38;;;14.80;;
6089;SDS011;3073;42.660;23.316;2022-09-01T11:09:24;22.02;;;13.77;;
6089;SDS011;3073;42.660;23.316;2022-09-01T11:15:31;28.15;;;14.95;;
6089;SDS011;3073;42.660;23.316;2022-09-01T11:17:59;21.52;;;13.70;;
6089;SDS011;3073;42.660;23.316;2022-09-01T11:20:28;19.45;;;14.77;;
6089;SDS011;3073;42.660;23.316;2022-09-01T11:22:59;20.60;;;14.20;;
6089;SDS011;3073;42.660;23.316;2022-09-01T11:25:39;18.55;;;14.23;;
6089;SDS011;3073;42.660;23.316;2022-09-01T11:31:15;24.20;;;13.70;;
6089;SDS011;3073;42.660;23.316;2022-09-01T11:36:45;23.00;;;12.25;;
6089;SDS011;3073;42.660;23.316;2022-09-01T11:39:22;17.20;;;12.75;;
6089;SDS011;3073;42.660;23.316;2022-09-01T11:41:57;15.68;;;12.90;;
6089;SDS011;3073;42.660;23.316;2022-09-01T11:44:28;24.38;;;13.60;;
6089;SDS011;3073;42.660;23.316;2022-09-01T11:47:02;19.08;;;12.32;;
6089;SDS011;3073;42.660;23.316;2022-09-01T11:49:32;16.02;;;11.00;;
6089;SDS011;3073;42.660;23.316;2022-09-01T11:52:01;20.77;;;13.50;;
6089;SDS011;3073;42.660;23.316;2022-09-01T11:54:35;20.15;;;10.57;;
6089;SDS011;3073;42.660;23.316;2022-09-01T11:57:18;22.08;;;12.52;;
6089;SDS011;3073;42.660;23.316;2022-09-01T11:59:48;13.88;;;10.15;;
6089;SDS011;3073;42.660;23.316;2022-09-01T12:02:17;18.17;;;10.63;;
6089;SDS011;3073;42.660;23.316;2022-09-01T12:04:47;14.15;;;11.10;;
6089;SDS011;3073;42.660;23.316;2022-09-01T12:07:23;19.88;;;11.73;;
6089;SDS011;3073;42.660;23.316;2022-09-01T12:09:52;16.38;;;12.10;;
6089;SDS011;3073;42.660;23.316;2022-09-01T12:12:27;38.70;;;21.85;;
6089;SDS011;3073;42.660;23.316;2022-09-01T12:14:57;13.55;;;11.50;;
6089;SDS011;3073;42.660;23.316;2022-09-01T12:17:26;30.58;;;14.38;;
6089;SDS011;3073;42.660;23.316;2022-09-01T12:19:53;34.58;;;14.15;;
6089;SDS011;3073;42.660;23.316;2022-09-01T12:22:20;19.85;;;10.88;;
6089;SDS011;3073;42.660;23.316;2022-09-01T12:24:49;19.77;;;11.35;;
6089;SDS011;3073;42.660;23.316;2022-09-01T12:27:17;26.95;;;11.48;;
6089;SDS011;3073;42.660;23.316;2022-09-01T12:29:44;18.83;;;11.55;;
6089;SDS011;3073;42.660;23.316;2022-09-01T12:32:12;16.23;;;11.30;;
6089;SDS011;3073;42.660;23.316;2022-09-01T12:34:43;18.45;;;11.77;;
6089;SDS011;3073;42.660;23.316;2022-09-01T12:37:11;22.10;;;11.13;;
6089;SDS011;3073;42.660;23.316;2022-09-01T12:39:46;20.77;;;13.23;;
6089;SDS011;3073;42.660;23.316;2022-09-01T12:42:22;21.50;;;13.85;;
6089;SDS011;3073;42.660;23.316;2022-09-01T12:44:52;23.88;;;13.68;;
6089;SDS011;3073;42.660;23.316;2022-09-01T12:50:33;25.60;;;12.43;;
6089;SDS011;3073;42.660;23.316;2022-09-01T12:53:13;20.10;;;11.25;;
6089;SDS011;3073;42.660;23.316;2022-09-01T12:55:53;18.42;;;13.23;;
6089;SDS011;3073;42.660;23.316;2022-09-01T12:58:24;19.20;;;12.77;;
6089;SDS011;3073;42.660;23.316;2022-09-01T13:00:54;19.02;;;14.13;;
6089;SDS011;3073;42.660;23.316;2022-09-01T13:03:22;24.77;;;15.13;;
6089;SDS011;3073;42.660;23.316;2022-09-01T13:05:53;17.75;;;14.00;;
6089;SDS011;3073;42.660;23.316;2022-09-01T13:08:23;17.75;;;13.13;;
6089;SDS011;3073;42.660;23.316;2022-09-01T13:10:53;18.33;;;12.77;;
6089;SDS011;3073;42.660;23.316;2022-09-01T13:13:21;18.73;;;12.40;;
6089;SDS011;3073;42.660;23.316;2022-09-01T13:15:50;23.70;;;12.32;;
6089;SDS011;3073;42.660;23.316;2022-09-01T13:18:18;25.50;;;13.13;;
6089;SDS011;3073;42.660;23.316;2022-09-01T13:20:47;20.75;;;12.30;;
6089;SDS011;3073;42.660;23.316;2022-09-01T13:23:16;25.00;;;13.57;;
6089;SDS011;3073;42.660;23.316;2022-09-01T13:25:43;19.67;;;12.20;;
6089;SDS011;3073;42.660;23.316;2022-09-01T13:28:10;31.85;;;15.88;;
6089;SDS011;3073;42.660;23.316;2022-09-01T13:30:38;24.33;;;13.57;;
6089;SDS011;3073;42.660;23.316;2022-09-01T13:33:06;22.30;;;13.40;;
6089;SDS011;3073;42.660;23.316;2022-09-01T13:35:36;25.73;;;13.48;;
6089;SDS011;3073;42.660;23.316;2022-09-01T13:38:04;15.25;;;13.13;;
6089;SDS011;3073;42.660;23.316;2022-09-01T13:40:32;21.60;;;13.60;;
6089;SDS011;3073;42.660;23.316;2022-09-01T13:42:59;17.85;;;12.75;;
6089;SDS011;3073;42.660;23.316;2022-09-01T13:45:29;18.63;;;13.50;;
6089;SDS011;3073;42.660;23.316;2022-09-01T13:47:56;26.15;;;13.20;;
6089;SDS011;3073;42.660;23.316;2022-09-01T13:50:23;27.75;;;13.65;;
6089;SDS011;3073;42.660;23.316;2022-09-01T13:52:50;16.98;;;13.30;;
6089;SDS011;3073;42.660;23.316;2022-09-01T13:55:19;17.58;;;12.55;;
6089;SDS011;3073;42.660;23.316;2022-09-01T13:57:50;23.95;;;12.70;;
6089;SDS011;3073;42.660;23.316;2022-09-01T14:00:18;19.55;;;12.20;;
6089;SDS011;3073;42.660;23.316;2022-09-01T14:02:48;17.08;;;11.60;;
6089;SDS011;3073;42.660;23.316;2022-09-01T14:05:19;14.55;;;12.40;;
6089;SDS011;3073;42.660;23.316;2022-09-01T14:07:47;16.25;;;12.35;;
6089;SDS011;3073;42.660;23.316;2022-09-01T14:10:15;16.92;;;12.82;;
6089;SDS011;3073;42.660;23.316;2022-09-01T14:12:42;18.98;;;14.23;;
6089;SDS011;3073;42.660;23.316;2022-09-01T14:15:12;20.15;;;12.95;;
6089;SDS011;3073;42.660;23.316;2022-09-01T14:17:40;23.08;;;13.73;;
6089;SDS011;3073;42.660;23.316;2022-09-01T14:20:10;20.10;;;13.52;;
6089;SDS011;3073;42.660;23.316;2022-09-01T14:22:38;17.95;;;13.35;;
6089;SDS011;3073;42.660;23.316;2022-09-01T14:25:06;19.40;;;13.48;;
6089;SDS011;3073;42.660;23.316;2022-09-01T14:27:34;21.40;;;15.05;;
6089;SDS011;3073;42.660;23.316;2022-09-01T14:30:02;23.45;;;14.90;;
6089;SDS011;3073;42.660;23.316;2022-09-01T14:32:32;18.27;;;13.70;;
6089;SDS011;3073;42.660;23.316;2022-09-01T14:35:00;18.38;;;13.85;;
6089;SDS011;3073;42.660;23.316;2022-09-01T14:37:27;16.60;;;13.95;;
6089;SDS011;3073;42.660;23.316;2022-09-01T14:39:55;19.45;;;13.93;;
6089;SDS011;3073;42.660;23.316;2022-09-01T14:42:23;23.20;;;13.65;;
6089;SDS011;3073;42.660;23.316;2022-09-01T14:44:52;22.83;;;13.45;;
6089;SDS011;3073;42.660;23.316;2022-09-01T14:47:20;16.73;;;12.40;;
6089;SDS011;3073;42.660;23.316;2022-09-01T14:49:50;18.50;;;13.00;;
6089;SDS011;3073;42.660;23.316;2022-09-01T14:52:17;16.23;;;11.85;;
6089;SDS011;3073;42.660;23.316;2022-09-01T14:54:44;13.85;;;11.77;;
6089;SDS011;3073;42.660;23.316;2022-09-01T14:57:11;16.42;;;12.57;;
6089;SDS011;3073;42.660;23.316;2022-09-01T14:59:39;16.10;;;12.90;;
6089;SDS011;3073;42.660;23.316;2022-09-01T15:02:06;24.60;;;12.38;;
6089;SDS011;3073;42.660;23.316;2022-09-01T15:04:34;14.10;;;11.77;;
6089;SDS011;3073;42.660;23.316;2022-09-01T15:07:03;20.33;;;11.90;;
6089;SDS011;3073;42.660;23.316;2022-09-01T15:09:30;20.20;;;13.18;;
6089;SDS011;3073;42.660;23.316;2022-09-01T15:11:57;15.40;;;11.43;;
6089;SDS011;3073;42.660;23.316;2022-09-01T15:14:24;18.05;;;12.35;;
6089;SDS011;3073;42.660;23.316;2022-09-01T15:16:51;21.33;;;14.02;;
6089;SDS011;3073;42.660;23.316;2022-09-01T15:19:18;21.60;;;15.00;;